首页
METAR-TAF:

METAR-TAF

机场 :

Naval Air Station Whidbey Island (Ault Field)

橡港, 华盛顿, 美国

纬度: 48-20-57N, 经度: 122-39-02W, 海拔: 14米

当前天气观测

该预报发布于44分钟前的21:53 UTC
风速9节,风向西
温度 11°C
湿度 71%
气压 1031 hPa
能見度: 16.1公里
少量云层高于5000英尺
少量云层高于25000英尺

METAR: KNUW 172153Z 27009KT 10SM FEW050 FEW250 11/06 A3046 RMK AO2 SLP318 T01110056 $

时间: 15:37 (22:37 UTC)

预报

预报有效从17日的 15点(UTC)到 18日的 15点(UTC)
风速6节,风向多变
能见度10公里或以上
少量云层高于11000英尺
少量云层高于25000英尺
从 17日的 1900点(UTC)
风速8节,风向西转西北,有时为15节阵风
能见度10公里或以上
散云层高于25000英尺
从 18日的 0900点(UTC)
风速6节,风向多变
能见度10公里或以上
少量云层高于22000英尺

TAF: KNUW 1715/1815 VRB06KT 9999 FEW110 FEW250 QNH3043INS FM171900 30008G15KT 9999 SCT250 QNH3035INS FM180900 VRB06KT 9999 FEW220 QNH3033INS TX12/1723Z TN03/1812Z FS30028

超过4000个机场的气象观测和天气预报(METAR&TAF报告)。

可查询的气象台以黄色和红色小点在地图上表示。

将鼠标移到小点上方,可查看气象台名称。

然后点击查看天气观测和预报。

如需切换地图:点击带黑十字的绿色按钮放大地图;点击带横线的绿色按钮缩小地图;或者点击绿色箭头查看邻近地区的地图。


METAR-TAF: